Time;durP1;ratioP1;P1;durP2;ratioP2;P2;SDS_P1;SDS_P2;PMS_P1;PMS_P2;Temp;Humidity;BMP_temperature;BMP_pressure;BME280_temperature;BME280_humidity;BME280_pressure;Samples;Min_cycle;Max_cycle;Signal;HPM_P1;HPM_P2
2023/07/09 00:01:33;;;;;;;;;;;;;;;;;;5018153;28;92288;-72
2023/07/09 00:03:59;;;;;;;;;;;;;;;;;;5026910;27;92719;-72
2023/07/09 00:06:24;;;;;;;;;;;;;;;;;;5023765;28;92242;-71
2023/07/09 00:08:49;;;;;;;;;;;;;;;;;;5024084;28;92790;-72
2023/07/09 00:11:15;;;;;;;;;;;;;;;;;;5022320;28;96515;-72
2023/07/09 00:13:40;;;;;;;;;;;;;;;;;;5024488;28;92293;-72
2023/07/09 00:16:18;;;;;;;;;;;;;;;;;;5024347;28;92663;-73
2023/07/09 00:18:44;;;;;;;;;;;;;;;;;;5022839;27;95756;-72
2023/07/09 00:21:09;;;;;;;;;;;;;;;;;;5024052;28;92259;-74
2023/07/09 00:23:36;;;;;;;;;;;;;;;;;;5023957;27;94094;-72
2023/07/09 00:26:03;;;;;;;;;;;;;;;;;;5020865;28;93299;-72
2023/07/09 00:28:28;;;;;;;;;;;;;;;;;;5038252;27;95864;-72
2023/07/09 00:30:53;;;;;;;;;;;;;;;;;;5024152;28;93743;-72
2023/07/09 00:33:18;;;;;;;;;;;;;;;;;;5024301;28;93366;-72
2023/07/09 00:35:46;;;;;;;;;;;;;;;;;;5024464;27;94087;-73
2023/07/09 00:38:15;;;;;;;;;;;;;;;;;;5024273;28;95211;-73
2023/07/09 00:40:46;;;;;;;;;;;;;;;;;;5023596;27;92562;-73
2023/07/09 00:43:14;;;;;;;;;;;;;;;;;;5020790;28;93709;-73
2023/07/09 00:45:39;;;;;;;;;;;;;;;;;;5023987;27;94114;-72
2023/07/09 00:48:06;;;;;;;;;;;;;;;;;;5027328;27;92210;-73
2023/07/09 00:50:31;;;;;;;;;;;;;;;;;;5024044;27;94223;-72
2023/07/09 00:52:59;;;;;;;;;;;;;;;;;;5024744;28;92547;-72
2023/07/09 00:55:30;;;;;;;;;;;;;;;;;;5024213;28;92796;-71
2023/07/09 00:57:59;;;;;;;;;;;;;;;;;;5021555;28;95587;-72
2023/07/09 01:00:46;;;;;;;;;;;;;;;;;;5020796;28;93376;-72
2023/07/09 01:03:23;;;;;;;;;;;;;;;;;;5020786;28;96053;-72
2023/07/09 01:05:51;;;;;;;;;;;;;;;;;;5023034;28;92844;-72
2023/07/09 01:08:17;;;;;;;;;;;;;;;;;;5023123;27;92851;-72
2023/07/09 01:10:42;;;;;;;;;;;;;;;;;;5023804;28;95484;-72
2023/07/09 01:13:08;;;;;;;;;;;;;;;;;;5022519;28;92329;-73
2023/07/09 01:15:34;;;;;;;;;;;;;;;;;;5022734;27;93066;-72
2023/07/09 01:17:59;;;;;;;;;;;;;;;;;;5023120;27;92023;-72
2023/07/09 01:20:26;;;;;;;;;;;;;;;;;;5022830;27;93376;-72
2023/07/09 01:22:54;;;;;;;;;;;;;;;;;;5022326;27;93057;-72
2023/07/09 01:25:20;;;;;;;;;;;;;;;;;;5021811;27;93730;-72
2023/07/09 01:27:46;;;;;;;;;;;;;;;;;;5021376;27;92545;-72
2023/07/09 01:30:22;;;;;;;;;;;;;;;;;;5023085;28;92634;-72
2023/07/09 01:32:49;;;;;;;;;;;;;;;;;;5024457;28;95428;-72
2023/07/09 01:35:15;;;;;;;;;;;;;;;;;;5022700;28;93327;-72
2023/07/09 01:37:41;;;;;;;;;;;;;;;;;;5021863;28;92953;-72
2023/07/09 01:40:09;;;;;;;;;;;;;;;;;;5022556;27;92385;-72
2023/07/09 01:42:34;;;;;;;;;;;;;;;;;;5022723;27;92577;-72
2023/07/09 01:45:01;;;;;;;;;;;;;;;;;;5022658;28;92921;-72
2023/07/09 01:47:26;;;;;;;;;;;;;;;;;;5022082;27;93485;-72
2023/07/09 01:49:56;;;;;;;;;;;;;;;;;;5021787;28;93575;-72
2023/07/09 01:52:24;;;;;;;;;;;;;;;;;;5021738;27;93316;-72
2023/07/09 01:54:49;;;;;;;;;;;;;;;;;;5025667;27;92303;-72
2023/07/09 01:57:15;;;;;;;;;;;;;;;;;;5021715;27;92885;-72
2023/07/09 01:59:41;;;;;;;;;;;;;;;;;;5022520;28;93498;-72
2023/07/09 02:02:06;;;;;;;;;;;;;;;;;;5022505;28;92922;-72
2023/07/09 02:04:31;;;;;;;;;;;;;;;;;;5022189;28;93361;-72
2023/07/09 02:06:57;;;;;;;;;;;;;;;;;;5023038;28;92703;-72
2023/07/09 02:09:22;;;;;;;;;;;;;;;;;;5022832;28;93494;-72
2023/07/09 02:11:47;;;;;;;;;;;;;;;;;;5021657;28;94119;-72
2023/07/09 02:14:12;;;;;;;;;;;;;;;;;;5027446;28;94870;-72
2023/07/09 02:16:37;;;;;;;;;;;;;;;;;;5025857;28;92882;-72
2023/07/09 02:19:03;;;;;;;;;;;;;;;;;;5026645;28;92652;-72
2023/07/09 02:21:29;;;;;;;;;;;;;;;;;;5025593;28;92773;-72
2023/07/09 02:23:55;;;;;;;;;;;;;;;;;;5025610;27;94106;-73
2023/07/09 02:26:20;;;;;;;;;;;;;;;;;;5025566;28;92654;-73
2023/07/09 02:28:45;;;;;;;;;;;;;;;;;;5025471;28;92752;-72
2023/07/09 02:31:11;;;;;;;;;;;;;;;;;;5025296;28;93189;-72
2023/07/09 02:33:36;;;;;;;;;;;;;;;;;;5025087;28;92967;-72
2023/07/09 02:36:01;;;;;;;;;;;;;;;;;;5027488;28;93688;-72
2023/07/09 02:38:27;;;;;;;;;;;;;;;;;;5024471;28;93125;-72
2023/07/09 02:40:53;;;;;;;;;;;;;;;;;;5024457;28;93290;-72
2023/07/09 02:43:18;;;;;;;;;;;;;;;;;;5024674;27;93518;-72
2023/07/09 02:45:44;;;;;;;;;;;;;;;;;;5024670;27;93906;-72
2023/07/09 02:48:09;;;;;;;;;;;;;;;;;;5027496;27;93421;-72
2023/07/09 02:50:34;;;;;;;;;;;;;;;;;;5024393;28;93468;-72
2023/07/09 02:53:00;;;;;;;;;;;;;;;;;;5025286;28;93301;-72
2023/07/09 02:55:25;;;;;;;;;;;;;;;;;;5025061;27;92423;-72
2023/07/09 02:57:50;;;;;;;;;;;;;;;;;;5027996;28;92884;-72
2023/07/09 03:00:15;;;;;;;;;;;;;;;;;;5025509;28;93096;-72
2023/07/09 03:02:41;;;;;;;;;;;;;;;;;;5024171;27;93771;-72
2023/07/09 03:05:06;;;;;;;;;;;;;;;;;;5025022;28;93344;-72
2023/07/09 03:07:31;;;;;;;;;;;;;;;;;;5024631;28;93948;-72
2023/07/09 03:09:56;;;;;;;;;;;;;;;;;;5024555;28;93826;-72
2023/07/09 03:12:22;;;;;;;;;;;;;;;;;;5023819;28;92282;-72
2023/07/09 03:14:47;;;;;;;;;;;;;;;;;;5024331;28;94159;-72
2023/07/09 03:17:13;;;;;;;;;;;;;;;;;;5023315;28;94231;-72
2023/07/09 03:19:38;;;;;;;;;;;;;;;;;;5028697;28;92121;-72
2023/07/09 03:22:03;;;;;;;;;;;;;;;;;;5024523;28;93396;-72
2023/07/09 03:24:28;;;;;;;;;;;;;;;;;;5024757;28;92658;-72
2023/07/09 03:26:53;;;;;;;;;;;;;;;;;;5022068;28;93148;-72
2023/07/09 03:29:19;;;;;;;;;;;;;;;;;;5024672;28;92764;-71
2023/07/09 03:31:44;;;;;;;;;;;;;;;;;;5024747;28;92256;-72
2023/07/09 03:34:09;;;;;;;;;;;;;;;;;;5024779;28;92796;-72
2023/07/09 03:36:37;;;;;;;;;;;;;;;;;;5024132;28;93886;-72
2023/07/09 03:39:02;;;;;;;;;;;;;;;;;;5018382;28;92329;-71
2023/07/09 03:41:27;;;;;;;;;;;;;;;;;;5027103;28;93040;-72
2023/07/09 03:43:53;;;;;;;;;;;;;;;;;;5024907;28;91529;-72
2023/07/09 03:46:18;;;;;;;;;;;;;;;;;;5024689;28;93021;-72
2023/07/09 03:48:43;;;;;;;;;;;;;;;;;;5024038;28;93012;-72
2023/07/09 03:51:09;;;;;;;;;;;;;;;;;;5024304;28;93579;-72
2023/07/09 03:53:34;;;;;;;;;;;;;;;;;;5023446;28;93741;-72
2023/07/09 03:56:00;;;;;;;;;;;;;;;;;;5023528;28;93049;-72
2023/07/09 03:58:25;;;;;;;;;;;;;;;;;;5022488;27;93669;-72
2023/07/09 04:00:50;;;;;;;;;;;;;;;;;;5023732;27;92710;-72
2023/07/09 04:03:16;;;;;;;;;;;;;;;;;;5026446;27;93748;-72
2023/07/09 04:05:41;;;;;;;;;;;;;;;;;;5023650;28;92846;-72
2023/07/09 04:08:06;;;;;;;;;;;;;;;;;;5022897;28;94627;-71
2023/07/09 04:10:32;;;;;;;;;;;;;;;;;;5023665;28;92555;-72
2023/07/09 04:12:57;;;;;;;;;;;;;;;;;;5023148;28;94010;-72
2023/07/09 04:15:22;;;;;;;;;;;;;;;;;;5021720;28;94218;-72
2023/07/09 04:17:48;;;;;;;;;;;;;;;;;;5023589;28;92832;-72
2023/07/09 04:20:13;;;;;;;;;;;;;;;;;;5023124;27;93510;-72
2023/07/09 04:22:39;;;;;;;;;;;;;;;;;;5027150;28;93222;-72
2023/07/09 04:25:06;;;;;;;;;;;;;;;;;;5023626;28;92305;-72
2023/07/09 04:27:31;;;;;;;;;;;;;;;;;;5019186;28;92786;-71
2023/07/09 04:29:57;;;;;;;;;;;;;;;;;;5020750;28;92286;-72
2023/07/09 04:32:22;;;;;;;;;;;;;;;;;;5023981;27;92717;-72
2023/07/09 04:34:48;;;;;;;;;;;;;;;;;;5024800;27;95724;-72
2023/07/09 04:37:14;;;;;;;;;;;;;;;;;;5017312;28;93593;-72
2023/07/09 04:39:40;;;;;;;;;;;;;;;;;;5018090;27;93548;-72
2023/07/09 04:42:06;;;;;;;;;;;;;;;;;;5020163;28;94039;-72
2023/07/09 04:44:31;;;;;;;;;;;;;;;;;;5025799;28;93014;-72
2023/07/09 04:46:57;;;;;;;;;;;;;;;;;;5020960;27;92918;-72
2023/07/09 04:49:22;;;;;;;;;;;;;;;;;;5018889;28;92677;-71
2023/07/09 04:51:48;;;;;;;;;;;;;;;;;;5021449;28;92595;-71
2023/07/09 04:54:14;;;;;;;;;;;;;;;;;;5020230;28;95120;-71
2023/07/09 04:56:44;;;;;;;;;;;;;;;;;;5021518;28;92177;-72
2023/07/09 04:59:09;;;;;;;;;;;;;;;;;;5016233;27;93260;-71
2023/07/09 05:01:34;;;;;;;;;;;;;;;;;;5020249;28;93156;-72
2023/07/09 05:04:00;;;;;;;;;;;;;;;;;;5018415;28;93607;-71
2023/07/09 05:06:25;;;;;;;;;;;;;;;;;;5024614;28;93396;-73
2023/07/09 05:08:50;;;;;;;;;;;;;;;;;;5018798;28;92402;-71
2023/07/09 05:11:15;;;;;;;;;;;;;;;;;;5017009;27;92877;-74
2023/07/09 05:13:41;;;;;;;;;;;;;;;;;;5018813;28;92900;-73
2023/07/09 05:16:06;;;;;;;;;;;;;;;;;;5017784;28;93640;-69
2023/07/09 05:18:31;;;;;;;;;;;;;;;;;;5015684;28;94484;-71
2023/07/09 05:20:56;;;;;;;;;;;;;;;;;;5018147;27;94934;-71
2023/07/09 05:23:24;;;;;;;;;;;;;;;;;;5016158;28;94056;-73
2023/07/09 05:25:49;;;;;;;;;;;;;;;;;;5020421;28;93372;-72
2023/07/09 05:28:15;;;;;;;;;;;;;;;;;;5019204;27;93163;-74
2023/07/09 05:30:43;;;;;;;;;;;;;;;;;;5020948;28;95007;-74
2023/07/09 05:33:08;;;;;;;;;;;;;;;;;;5022347;27;95498;-73
2023/07/09 05:35:33;;;;;;;;;;;;;;;;;;5008694;28;93478;-73
2023/07/09 05:37:59;;;;;;;;;;;;;;;;;;5016855;27;92877;-74
2023/07/09 05:40:24;;;;;;;;;;;;;;;;;;5019343;28;92932;-74
2023/07/09 05:42:49;;;;;;;;;;;;;;;;;;5017897;28;93254;-73
2023/07/09 05:45:15;;;;;;;;;;;;;;;;;;5017813;28;92886;-71
2023/07/09 05:47:40;;;;;;;;;;;;;;;;;;5018447;27;92860;-72
2023/07/09 05:50:06;;;;;;;;;;;;;;;;;;5021386;28;92697;-74
2023/07/09 05:52:32;;;;;;;;;;;;;;;;;;5020203;27;95423;-72
2023/07/09 05:54:59;;;;;;;;;;;;;;;;;;5024364;28;92725;-75
2023/07/09 05:57:24;;;;;;;;;;;;;;;;;;5018249;27;93415;-73
2023/07/09 05:59:49;;;;;;;;;;;;;;;;;;5017075;28;93056;-71
2023/07/09 06:02:16;;;;;;;;;;;;;;;;;;5019817;28;92647;-73
2023/07/09 06:04:42;;;;;;;;;;;;;;;;;;5021746;28;93560;-73
2023/07/09 06:07:07;;;;;;;;;;;;;;;;;;5022819;27;93857;-75
2023/07/09 06:09:32;;;;;;;;;;;;;;;;;;5024127;27;92257;-73
2023/07/09 06:11:58;;;;;;;;;;;;;;;;;;5018789;28;92373;-74
2023/07/09 06:14:23;;;;;;;;;;;;;;;;;;5024342;27;92892;-72
2023/07/09 06:16:48;;;;;;;;;;;;;;;;;;5021106;27;94211;-72
2023/07/09 06:19:14;;;;;;;;;;;;;;;;;;5015509;28;93267;-72
2023/07/09 06:21:39;;;;;;;;;;;;;;;;;;5018877;28;93253;-73
2023/07/09 06:24:05;;;;;;;;;;;;;;;;;;5023660;28;92744;-74
2023/07/09 06:26:30;;;;;;;;;;;;;;;;;;5021995;27;92911;-68
2023/07/09 06:28:56;;;;;;;;;;;;;;;;;;5015496;28;92891;-74
2023/07/09 06:31:21;;;;;;;;;;;;;;;;;;5017338;28;94228;-72
2023/07/09 06:33:47;;;;;;;;;;;;;;;;;;5022049;28;91982;-75
2023/07/09 06:36:12;;;;;;;;;;;;;;;;;;5016033;28;92422;-74
2023/07/09 06:38:37;;;;;;;;;;;;;;;;;;5021276;28;92961;-73
2023/07/09 06:41:03;;;;;;;;;;;;;;;;;;5022159;28;93614;-72
2023/07/09 06:43:29;;;;;;;;;;;;;;;;;;5023125;28;93535;-73
2023/07/09 06:45:57;;;;;;;;;;;;;;;;;;5022106;28;93282;-75
2023/07/09 06:48:23;;;;;;;;;;;;;;;;;;5019288;28;92230;-74
2023/07/09 06:50:48;;;;;;;;;;;;;;;;;;5018196;28;92528;-71
2023/07/09 06:53:14;;;;;;;;;;;;;;;;;;5024027;28;93825;-73
2023/07/09 06:55:39;;;;;;;;;;;;;;;;;;5020317;27;94647;-76
2023/07/09 06:58:05;;;;;;;;;;;;;;;;;;5023293;27;92102;-75
2023/07/09 07:00:31;;;;;;;;;;;;;;;;;;5022612;28;93122;-73
2023/07/09 07:02:56;;;;;;;;;;;;;;;;;;5021863;28;95219;-74
2023/07/09 07:05:21;;;;;;;;;;;;;;;;;;5023656;28;93937;-72
2023/07/09 07:07:47;;;;;;;;;;;;;;;;;;5021017;28;92209;-75
2023/07/09 07:10:12;;;;;;;;;;;;;;;;;;5019407;28;92990;-77
2023/07/09 07:12:42;;;;;;;;;;;;;;;;;;5018829;28;92752;-75
2023/07/09 07:15:07;;;;;;;;;;;;;;;;;;5025936;27;92747;-74
2023/07/09 07:17:33;;;;;;;;;;;;;;;;;;5018197;28;93267;-70
2023/07/09 07:19:58;;;;;;;;;;;;;;;;;;5015419;28;92239;-71
2023/07/09 07:22:23;;;;;;;;;;;;;;;;;;5021949;28;92836;-71
2023/07/09 07:24:48;;;;;;;;;;;;;;;;;;5022132;28;92870;-71
2023/07/09 07:27:13;;;;;;;;;;;;;;;;;;5021764;28;92963;-74
2023/07/09 07:29:39;;;;;;;;;;;;;;;;;;5019944;27;93215;-74
2023/07/09 07:32:04;;;;;;;;;;;;;;;;;;5023582;27;95578;-73
2023/07/09 07:34:29;;;;;;;;;;;;;;;;;;5021365;28;92590;-74
2023/07/09 07:36:55;;;;;;;;;;;;;;;;;;5023890;28;92505;-74
2023/07/09 07:39:20;;;;;;;;;;;;;;;;;;5022075;28;94030;-74
2023/07/09 07:41:45;;;;;;;;;;;;;;;;;;5020246;28;93945;-75
2023/07/09 07:44:10;;;;;;;;;;;;;;;;;;5022436;28;94613;-74
2023/07/09 07:46:36;;;;;;;;;;;;;;;;;;5018679;27;92551;-74
2023/07/09 07:49:01;;;;;;;;;;;;;;;;;;5019306;28;93900;-73
2023/07/09 07:51:26;;;;;;;;;;;;;;;;;;5020306;28;93586;-74
2023/07/09 07:53:52;;;;;;;;;;;;;;;;;;5021569;28;93734;-74
2023/07/09 07:56:17;;;;;;;;;;;;;;;;;;5022311;27;93533;-75
2023/07/09 07:58:43;;;;;;;;;;;;;;;;;;5024835;28;93505;-75
2023/07/09 08:01:08;;;;;;;;;;;;;;;;;;5023975;27;95465;-74
2023/07/09 08:03:33;;;;;;;;;;;;;;;;;;5020045;28;93907;-74
2023/07/09 08:05:59;;;;;;;;;;;;;;;;;;5022206;28;92824;-75
2023/07/09 08:08:25;;;;;;;;;;;;;;;;;;5022419;28;92929;-74
2023/07/09 08:10:51;;;;;;;;;;;;;;;;;;5019958;28;92476;-74
2023/07/09 08:13:16;;;;;;;;;;;;;;;;;;5018020;27;93498;-75
2023/07/09 08:15:42;;;;;;;;;;;;;;;;;;5018153;28;93564;-74
2023/07/09 08:18:07;;;;;;;;;;;;;;;;;;5019259;27;93840;-75
2023/07/09 08:20:33;;;;;;;;;;;;;;;;;;5022634;28;92885;-75
2023/07/09 08:22:58;;;;;;;;;;;;;;;;;;5021898;27;93168;-74
2023/07/09 08:25:23;;;;;;;;;;;;;;;;;;5017367;28;93023;-74
2023/07/09 08:27:48;;;;;;;;;;;;;;;;;;5018210;28;94222;-74
2023/07/09 08:30:14;;;;;;;;;;;;;;;;;;5021110;28;92840;-73
2023/07/09 08:32:39;;;;;;;;;;;;;;;;;;5022308;27;94298;-74
2023/07/09 08:35:04;;;;;;;;;;;;;;;;;;5014477;28;92664;-74
2023/07/09 08:37:29;;;;;;;;;;;;;;;;;;5018151;28;92985;-74
2023/07/09 08:39:55;;;;;;;;;;;;;;;;;;5023808;28;92313;-74
2023/07/09 08:42:32;;;;;;;;;;;;;;;;;;5019817;28;94386;-74
2023/07/09 08:45:14;;;;;;;;;;;;;;;;;;5017908;28;92240;-74
2023/07/09 08:47:52;;;;;;;;;;;;;;;;;;5018053;28;92633;-74
2023/07/09 08:50:32;;;;;;;;;;;;;;;;;;5019655;28;95252;-74
2023/07/09 08:52:58;;;;;;;;;;;;;;;;;;5020544;28;92821;-74
2023/07/09 08:55:28;;;;;;;;;;;;;;;;;;5019703;27;92648;-74
2023/07/09 08:57:59;;;;;;;;;;;;;;;;;;5018476;27;92863;-74
2023/07/09 09:00:24;;;;;;;;;;;;;;;;;;5020364;27;91902;-74
2023/07/09 09:02:52;;;;;;;;;;;;;;;;;;5022496;28;93045;-74
2023/07/09 09:05:19;;;;;;;;;;;;;;;;;;5020796;27;93085;-75
2023/07/09 09:07:45;;;;;;;;;;;;;;;;;;5019665;28;95330;-75
2023/07/09 09:10:13;;;;;;;;;;;;;;;;;;5014221;28;92929;-74
2023/07/09 09:12:40;;;;;;;;;;;;;;;;;;5018494;27;93785;-75
2023/07/09 09:15:14;;;;;;;;;;;;;;;;;;5020650;27;93791;-74
2023/07/09 09:17:41;;;;;;;;;;;;;;;;;;5020795;27;93505;-75
2023/07/09 09:20:13;;;;;;;;;;;;;;;;;;5015933;27;93709;-75
2023/07/09 09:22:38;;;;;;;;;;;;;;;;;;5019022;27;93453;-74
2023/07/09 09:25:21;;;;;;;;;;;;;;;;;;5031543;27;92192;-74
2023/07/09 09:27:46;;;;;;;;;;;;;;;;;;5024183;28;93824;-74
2023/07/09 09:30:13;;;;;;;;;;;;;;;;;;5026495;28;93086;-74
2023/07/09 09:32:47;;;;;;;;;;;;;;;;;;5027112;27;94675;-74
2023/07/09 09:35:17;;;;;;;;;;;;;;;;;;5026533;28;94323;-71
2023/07/09 09:37:53;;;;;;;;;;;;;;;;;;5023125;27;93364;-74
2023/07/09 09:40:22;;;;;;;;;;;;;;;;;;5024245;28;92726;-73
2023/07/09 09:42:47;;;;;;;;;;;;;;;;;;5025569;28;92670;-74
2023/07/09 09:45:15;;;;;;;;;;;;;;;;;;5023902;27;92871;-74
2023/07/09 09:47:40;;;;;;;;;;;;;;;;;;5029380;27;93194;-72
2023/07/09 09:50:05;;;;;;;;;;;;;;;;;;5021706;28;92108;-75
2023/07/09 09:52:34;;;;;;;;;;;;;;;;;;5026252;28;92305;-74
2023/07/09 09:55:08;;;;;;;;;;;;;;;;;;5022505;28;93561;-76
2023/07/09 09:57:33;;;;;;;;;;;;;;;;;;5024489;28;95498;-76
2023/07/09 09:59:59;;;;;;;;;;;;;;;;;;5023057;28;92411;-76
2023/07/09 10:02:25;;;;;;;;;;;;;;;;;;5025297;28;93063;-75
2023/07/09 10:04:51;;;;;;;;;;;;;;;;;;5024532;27;93337;-76
2023/07/09 10:07:21;;;;;;;;;;;;;;;;;;5026168;28;93063;-77
2023/07/09 10:09:46;;;;;;;;;;;;;;;;;;5022969;28;93978;-78
2023/07/09 10:12:17;;;;;;;;;;;;;;;;;;5025034;28;92264;-77
2023/07/09 10:14:45;;;;;;;;;;;;;;;;;;5024612;28;93827;-77
2023/07/09 10:17:21;;;;;;;;;;;;;;;;;;5023391;28;92960;-76
2023/07/09 10:19:57;;;;;;;;;;;;;;;;;;5023572;28;92339;-76
2023/07/09 10:22:33;;;;;;;;;;;;;;;;;;5020488;28;94248;-76
2023/07/09 10:25:06;;;;;;;;;;;;;;;;;;5024876;28;93860;-76
2023/07/09 10:27:34;;;;;;;;;;;;;;;;;;5025990;28;92807;-76
2023/07/09 10:30:21;;;;;;;;;;;;;;;;;;5027448;28;93272;-77
2023/07/09 10:32:52;;;;;;;;;;;;;;;;;;5022777;28;93644;-76
2023/07/09 10:35:17;;;;;;;;;;;;;;;;;;5020430;28;93072;-76
2023/07/09 10:37:52;;;;;;;;;;;;;;;;;;5020988;27;92707;-77
2023/07/09 10:40:25;;;;;;;;;;;;;;;;;;5023642;28;92237;-76
2023/07/09 10:42:52;;;;;;;;;;;;;;;;;;5020911;28;92782;-77
2023/07/09 10:45:29;;;;;;;;;;;;;;;;;;5023239;27;93962;-76
2023/07/09 10:47:57;;;;;;;;;;;;;;;;;;5022391;28;94422;-77
2023/07/09 10:50:25;;;;;;;;;;;;;;;;;;5014168;28;93361;-76
2023/07/09 10:52:53;;;;;;;;;;;;;;;;;;5023176;28;92490;-75
2023/07/09 10:55:18;;;;;;;;;;;;;;;;;;5019574;28;92679;-77
2023/07/09 10:57:48;;;;;;;;;;;;;;;;;;5021987;28;93018;-76
2023/07/09 11:00:23;;;;;;;;;;;;;;;;;;5021948;28;92959;-75
2023/07/09 11:02:54;;;;;;;;;;;;;;;;;;5023345;28;93159;-76
2023/07/09 11:05:19;;;;;;;;;;;;;;;;;;5020620;28;94590;-76
2023/07/09 11:07:51;;;;;;;;;;;;;;;;;;5021248;28;92914;-71
2023/07/09 11:10:28;;;;;;;;;;;;;;;;;;5020504;28;93715;-76
2023/07/09 11:13:00;;;;;;;;;;;;;;;;;;5021188;28;97943;-77
2023/07/09 11:15:37;;;;;;;;;;;;;;;;;;5022843;27;94540;-77
2023/07/09 11:18:05;;;;;;;;;;;;;;;;;;5020327;27;93514;-76
2023/07/09 11:20:35;;;;;;;;;;;;;;;;;;5021188;27;93588;-76
2023/07/09 11:23:04;;;;;;;;;;;;;;;;;;5018905;27;93490;-77
2023/07/09 11:25:43;;;;;;;;;;;;;;;;;;5018583;28;93169;-76
2023/07/09 11:28:09;;;;;;;;;;;;;;;;;;5022689;28;93219;-76
2023/07/09 11:30:46;;;;;;;;;;;;;;;;;;5021792;27;92555;-76
2023/07/09 11:33:26;;;;;;;;;;;;;;;;;;5021962;28;93658;-78
2023/07/09 11:35:53;;;;;;;;;;;;;;;;;;5021596;28;94697;-77
2023/07/09 11:38:20;;;;;;;;;;;;;;;;;;5022904;28;93221;-76
2023/07/09 11:40:52;;;;;;;;;;;;;;;;;;5019120;28;92564;-76
2023/07/09 11:43:47;;;;;;;;;;;;;;;;;;5018080;28;92903;-76
2023/07/09 11:46:14;;;;;;;;;;;;;;;;;;5020230;28;92883;-75
2023/07/09 11:48:40;;;;;;;;;;;;;;;;;;5022737;27;92714;-76
2023/07/09 11:51:13;;;;;;;;;;;;;;;;;;5019027;28;92928;-75
2023/07/09 11:53:44;;;;;;;;;;;;;;;;;;5016534;28;93569;-76
2023/07/09 11:56:10;;;;;;;;;;;;;;;;;;5023891;27;92373;-76
2023/07/09 11:58:35;;;;;;;;;;;;;;;;;;5019840;28;94143;-77
2023/07/09 12:01:03;;;;;;;;;;;;;;;;;;5022712;28;92831;-76
2023/07/09 12:03:34;;;;;;;;;;;;;;;;;;5019584;28;93991;-75
2023/07/09 12:06:00;;;;;;;;;;;;;;;;;;5021353;28;93015;-76
2023/07/09 12:08:36;;;;;;;;;;;;;;;;;;5022647;28;92290;-76
2023/07/09 12:11:02;;;;;;;;;;;;;;;;;;5018703;28;93801;-75
2023/07/09 12:13:27;;;;;;;;;;;;;;;;;;5021982;27;93081;-76
2023/07/09 12:15:52;;;;;;;;;;;;;;;;;;5021949;28;92682;-75
2023/07/09 12:18:18;;;;;;;;;;;;;;;;;;5020109;27;93867;-75
2023/07/09 12:20:47;;;;;;;;;;;;;;;;;;5021987;27;92217;-76
2023/07/09 12:23:29;;;;;;;;;;;;;;;;;;5025244;27;92564;-77
2023/07/09 12:25:54;;;;;;;;;;;;;;;;;;5020137;28;93143;-76
2023/07/09 12:28:21;;;;;;;;;;;;;;;;;;5020424;28;93380;-77
2023/07/09 12:30:47;;;;;;;;;;;;;;;;;;5020368;28;94689;-76
2023/07/09 12:33:15;;;;;;;;;;;;;;;;;;5019752;27;93523;-76
2023/07/09 12:35:40;;;;;;;;;;;;;;;;;;5020826;27;92925;-77
2023/07/09 12:38:15;;;;;;;;;;;;;;;;;;5021355;28;92980;-76
2023/07/09 12:40:41;;;;;;;;;;;;;;;;;;5020315;27;93264;-77
2023/07/09 12:43:09;;;;;;;;;;;;;;;;;;5022829;28;92466;-76
2023/07/09 12:45:35;;;;;;;;;;;;;;;;;;5020011;27;92439;-78
2023/07/09 12:48:00;;;;;;;;;;;;;;;;;;5019986;27;93332;-78
2023/07/09 12:50:32;;;;;;;;;;;;;;;;;;5019084;28;93610;-79
2023/07/09 12:53:03;;;;;;;;;;;;;;;;;;5018960;27;93817;-78
2023/07/09 12:55:31;;;;;;;;;;;;;;;;;;5015222;28;93799;-79
2023/07/09 12:57:58;;;;;;;;;;;;;;;;;;5019277;28;92969;-78
2023/07/09 13:00:28;;;;;;;;;;;;;;;;;;5019353;27;94298;-79
2023/07/09 13:02:55;;;;;;;;;;;;;;;;;;5020800;28;92734;-78
2023/07/09 13:05:22;;;;;;;;;;;;;;;;;;5023499;28;92980;-77
2023/07/09 13:07:50;;;;;;;;;;;;;;;;;;5020932;27;93815;-76
2023/07/09 13:10:17;;;;;;;;;;;;;;;;;;5019060;27;93183;-76
2023/07/09 13:12:45;;;;;;;;;;;;;;;;;;5019586;27;92839;-77
2023/07/09 13:15:43;;;;;;;;;;;;;;;;;;5021945;27;92548;-76
2023/07/09 13:18:10;;;;;;;;;;;;;;;;;;4975917;28;95653;-76
2023/07/09 13:20:37;;;;;;;;;;;;;;;;;;5020266;28;93659;-75
2023/07/09 13:23:16;;;;;;;;;;;;;;;;;;5012626;28;95592;-76
2023/07/09 13:25:42;;;;;;;;;;;;;;;;;;5017730;28;95804;-76
2023/07/09 13:28:16;;;;;;;;;;;;;;;;;;5021811;27;92973;-76
2023/07/09 13:30:41;;;;;;;;;;;;;;;;;;5018550;28;92992;-76
2023/07/09 13:33:11;;;;;;;;;;;;;;;;;;5020153;28;92844;-76
2023/07/09 13:35:36;;;;;;;;;;;;;;;;;;5021371;28;92826;-76
2023/07/09 13:38:04;;;;;;;;;;;;;;;;;;5020951;28;92295;-76
2023/07/09 13:40:30;;;;;;;;;;;;;;;;;;5019013;27;93783;-76
2023/07/09 13:42:55;;;;;;;;;;;;;;;;;;5019689;28;93739;-77
2023/07/09 13:45:23;;;;;;;;;;;;;;;;;;5019974;27;93325;-76
2023/07/09 13:47:50;;;;;;;;;;;;;;;;;;5021072;27;92781;-76
2023/07/09 13:50:16;;;;;;;;;;;;;;;;;;5021979;27;92403;-77
2023/07/09 13:52:41;;;;;;;;;;;;;;;;;;5021405;27;95198;-75
2023/07/09 13:55:14;;;;;;;;;;;;;;;;;;5020217;28;95096;-76
2023/07/09 13:57:40;;;;;;;;;;;;;;;;;;5019928;28;92762;-76
2023/07/09 14:00:08;;;;;;;;;;;;;;;;;;5018370;27;93028;-76
2023/07/09 14:02:33;;;;;;;;;;;;;;;;;;5019369;27;93022;-76
2023/07/09 14:04:59;;;;;;;;;;;;;;;;;;5020461;28;92862;-75
2023/07/09 14:07:29;;;;;;;;;;;;;;;;;;5020845;28;94043;-77
2023/07/09 14:09:55;;;;;;;;;;;;;;;;;;5019668;28;93011;-76
2023/07/09 14:12:20;;;;;;;;;;;;;;;;;;5024415;27;93570;-76
2023/07/09 14:14:47;;;;;;;;;;;;;;;;;;5020268;28;92675;-75
2023/07/09 14:17:12;;;;;;;;;;;;;;;;;;5021969;27;95304;-76
2023/07/09 14:19:38;;;;;;;;;;;;;;;;;;5017218;28;92850;-76
2023/07/09 14:22:15;;;;;;;;;;;;;;;;;;5019418;28;92477;-76
2023/07/09 14:24:40;;;;;;;;;;;;;;;;;;5022122;28;93036;-75
2023/07/09 14:27:08;;;;;;;;;;;;;;;;;;5015695;27;95839;-76
2023/07/09 14:29:33;;;;;;;;;;;;;;;;;;5017334;28;92491;-76
2023/07/09 14:31:59;;;;;;;;;;;;;;;;;;5021059;28;94659;-76
2023/07/09 14:34:27;;;;;;;;;;;;;;;;;;5026475;28;93843;-75
2023/07/09 14:36:53;;;;;;;;;;;;;;;;;;5022364;28;92807;-75
2023/07/09 14:39:19;;;;;;;;;;;;;;;;;;5018728;27;92984;-75
2023/07/09 14:41:44;;;;;;;;;;;;;;;;;;5020789;28;92764;-76
2023/07/09 14:44:29;;;;;;;;;;;;;;;;;;5016624;28;93309;-75
2023/07/09 14:46:55;;;;;;;;;;;;;;;;;;5023353;28;92977;-76
2023/07/09 14:49:21;;;;;;;;;;;;;;;;;;5022015;28;93698;-76
2023/07/09 14:51:47;;;;;;;;;;;;;;;;;;5022101;27;93778;-75
2023/07/09 14:54:20;;;;;;;;;;;;;;;;;;5021836;28;92871;-76
2023/07/09 14:56:46;;;;;;;;;;;;;;;;;;5015231;28;93462;-76
2023/07/09 14:59:12;;;;;;;;;;;;;;;;;;5020499;28;92948;-77
2023/07/09 15:01:37;;;;;;;;;;;;;;;;;;5016124;28;93151;-77
2023/07/09 15:04:22;;;;;;;;;;;;;;;;;;5020633;28;95422;-78
2023/07/09 15:06:51;;;;;;;;;;;;;;;;;;5021907;28;94253;-77
2023/07/09 15:09:21;;;;;;;;;;;;;;;;;;5022272;28;92968;-78
2023/07/09 15:11:49;;;;;;;;;;;;;;;;;;5011575;28;95199;-78
2023/07/09 15:14:14;;;;;;;;;;;;;;;;;;5022802;28;92576;-75
2023/07/09 15:16:39;;;;;;;;;;;;;;;;;;5027439;27;93217;-78
2023/07/09 15:19:14;;;;;;;;;;;;;;;;;;5020374;28;93143;-79
2023/07/09 15:21:40;;;;;;;;;;;;;;;;;;5013802;28;94654;-77
2023/07/09 15:24:10;;;;;;;;;;;;;;;;;;5022797;28;93494;-78
2023/07/09 15:26:35;;;;;;;;;;;;;;;;;;5021000;27;96331;-78
2023/07/09 15:29:01;;;;;;;;;;;;;;;;;;5013064;28;93159;-77
2023/07/09 15:31:26;;;;;;;;;;;;;;;;;;5017532;28;93258;-77
2023/07/09 15:33:51;;;;;;;;;;;;;;;;;;5018445;27;93584;-78
2023/07/09 15:36:16;;;;;;;;;;;;;;;;;;5019575;27;93512;-77
2023/07/09 15:38:42;;;;;;;;;;;;;;;;;;5022773;28;93907;-78
2023/07/09 15:41:14;;;;;;;;;;;;;;;;;;5019954;28;92501;-77
2023/07/09 15:43:41;;;;;;;;;;;;;;;;;;5021688;27;93721;-78
2023/07/09 15:46:11;;;;;;;;;;;;;;;;;;5016702;28;94225;-77
2023/07/09 15:48:37;;;;;;;;;;;;;;;;;;5020672;28;92585;-77
2023/07/09 15:51:04;;;;;;;;;;;;;;;;;;5019622;28;92955;-76
2023/07/09 15:53:29;;;;;;;;;;;;;;;;;;5021502;28;92962;-75
2023/07/09 15:55:58;;;;;;;;;;;;;;;;;;5020389;28;92743;-77
2023/07/09 15:58:25;;;;;;;;;;;;;;;;;;5017537;27;93301;-76
2023/07/09 16:00:50;;;;;;;;;;;;;;;;;;5022545;28;93237;-76
2023/07/09 16:03:15;;;;;;;;;;;;;;;;;;5020299;28;92453;-76
2023/07/09 16:05:40;;;;;;;;;;;;;;;;;;5022335;28;92996;-75
2023/07/09 16:08:07;;;;;;;;;;;;;;;;;;5018866;28;92900;-77
2023/07/09 16:10:33;;;;;;;;;;;;;;;;;;5017738;27;93278;-76
2023/07/09 16:12:58;;;;;;;;;;;;;;;;;;5021216;27;94787;-76
2023/07/09 16:15:24;;;;;;;;;;;;;;;;;;5021674;28;92248;-76
2023/07/09 16:17:50;;;;;;;;;;;;;;;;;;5021367;27;93038;-76
2023/07/09 16:20:16;;;;;;;;;;;;;;;;;;5015286;28;93021;-77
2023/07/09 16:22:43;;;;;;;;;;;;;;;;;;5022318;28;92571;-76
2023/07/09 16:25:19;;;;;;;;;;;;;;;;;;5021215;27;92959;-76
2023/07/09 16:27:45;;;;;;;;;;;;;;;;;;5019807;27;92023;-76
2023/07/09 16:30:12;;;;;;;;;;;;;;;;;;5020980;28;92560;-76
2023/07/09 16:32:38;;;;;;;;;;;;;;;;;;5018970;27;93694;-77
2023/07/09 16:35:04;;;;;;;;;;;;;;;;;;5019840;28;93614;-76
2023/07/09 16:37:29;;;;;;;;;;;;;;;;;;5017436;28;93454;-76
2023/07/09 16:39:54;;;;;;;;;;;;;;;;;;5022442;27;94738;-76
2023/07/09 16:42:19;;;;;;;;;;;;;;;;;;5016932;28;92702;-77
2023/07/09 16:44:45;;;;;;;;;;;;;;;;;;5018849;28;92923;-77
2023/07/09 16:47:17;;;;;;;;;;;;;;;;;;5019252;28;92742;-77